sensor_id;sensor_type;location;lat;lon;timestamp;P1;durP1;ratioP1;P2;durP2;ratioP2
63444;SDS011;49573;47.682;9.170;2023-02-03T00:00:09;5.15;;;1.83;;
63444;SDS011;49573;47.682;9.170;2023-02-03T00:02:56;4.43;;;1.52;;
63444;SDS011;49573;47.682;9.170;2023-02-03T00:05:42;2.55;;;1.50;;
63444;SDS011;49573;47.682;9.170;2023-02-03T00:08:30;4.45;;;1.85;;
63444;SDS011;49573;47.682;9.170;2023-02-03T00:11:16;2.88;;;1.50;;
63444;SDS011;49573;47.682;9.170;2023-02-03T00:14:02;3.08;;;1.73;;
63444;SDS011;49573;47.682;9.170;2023-02-03T00:16:49;2.47;;;1.70;;
63444;SDS011;49573;47.682;9.170;2023-02-03T00:19:35;3.97;;;1.95;;
63444;SDS011;49573;47.682;9.170;2023-02-03T00:22:21;4.85;;;1.88;;
63444;SDS011;49573;47.682;9.170;2023-02-03T00:25:09;6.60;;;1.75;;
63444;SDS011;49573;47.682;9.170;2023-02-03T00:27:55;4.60;;;1.60;;
63444;SDS011;49573;47.682;9.170;2023-02-03T00:30:41;5.10;;;1.88;;
63444;SDS011;49573;47.682;9.170;2023-02-03T00:33:28;4.57;;;1.77;;
63444;SDS011;49573;47.682;9.170;2023-02-03T00:36:14;5.88;;;1.65;;
63444;SDS011;49573;47.682;9.170;2023-02-03T00:39:00;3.35;;;1.35;;
63444;SDS011;49573;47.682;9.170;2023-02-03T00:41:47;5.23;;;1.87;;
63444;SDS011;49573;47.682;9.170;2023-02-03T00:44:33;4.82;;;1.75;;
63444;SDS011;49573;47.682;9.170;2023-02-03T00:47:19;2.65;;;1.50;;
63444;SDS011;49573;47.682;9.170;2023-02-03T00:50:06;4.47;;;1.83;;
63444;SDS011;49573;47.682;9.170;2023-02-03T00:52:52;3.20;;;1.60;;
63444;SDS011;49573;47.682;9.170;2023-02-03T00:55:38;4.20;;;2.17;;
63444;SDS011;49573;47.682;9.170;2023-02-03T00:58:25;4.15;;;1.65;;
63444;SDS011;49573;47.682;9.170;2023-02-03T01:01:11;4.93;;;2.20;;
63444;SDS011;49573;47.682;9.170;2023-02-03T01:03:57;4.45;;;1.60;;
63444;SDS011;49573;47.682;9.170;2023-02-03T01:06:44;4.13;;;1.30;;
63444;SDS011;49573;47.682;9.170;2023-02-03T01:09:32;6.03;;;1.85;;
63444;SDS011;49573;47.682;9.170;2023-02-03T01:12:18;5.28;;;2.17;;
63444;SDS011;49573;47.682;9.170;2023-02-03T01:15:06;4.18;;;1.58;;
63444;SDS011;49573;47.682;9.170;2023-02-03T01:17:53;4.20;;;1.90;;
63444;SDS011;49573;47.682;9.170;2023-02-03T01:20:39;4.70;;;1.63;;
63444;SDS011;49573;47.682;9.170;2023-02-03T01:23:25;6.55;;;1.55;;
63444;SDS011;49573;47.682;9.170;2023-02-03T01:26:12;4.78;;;1.52;;
63444;SDS011;49573;47.682;9.170;2023-02-03T01:28:59;3.85;;;1.67;;
63444;SDS011;49573;47.682;9.170;2023-02-03T01:31:47;4.80;;;1.92;;
63444;SDS011;49573;47.682;9.170;2023-02-03T01:34:33;4.55;;;1.40;;
63444;SDS011;49573;47.682;9.170;2023-02-03T01:37:19;4.97;;;1.80;;
63444;SDS011;49573;47.682;9.170;2023-02-03T01:40:06;4.43;;;1.63;;
63444;SDS011;49573;47.682;9.170;2023-02-03T01:42:53;5.72;;;1.73;;
63444;SDS011;49573;47.682;9.170;2023-02-03T01:45:39;4.50;;;1.60;;
63444;SDS011;49573;47.682;9.170;2023-02-03T01:48:26;5.20;;;1.83;;
63444;SDS011;49573;47.682;9.170;2023-02-03T01:51:14;3.00;;;1.50;;
63444;SDS011;49573;47.682;9.170;2023-02-03T01:54:00;3.92;;;1.42;;
63444;SDS011;49573;47.682;9.170;2023-02-03T01:56:47;4.32;;;1.92;;
63444;SDS011;49573;47.682;9.170;2023-02-03T01:59:36;6.68;;;1.77;;
63444;SDS011;49573;47.682;9.170;2023-02-03T02:02:22;2.83;;;1.52;;
63444;SDS011;49573;47.682;9.170;2023-02-03T02:05:10;3.45;;;1.50;;
63444;SDS011;49573;47.682;9.170;2023-02-03T02:08:01;3.65;;;1.75;;
63444;SDS011;49573;47.682;9.170;2023-02-03T02:13:35;4.60;;;1.52;;
63444;SDS011;49573;47.682;9.170;2023-02-03T02:16:24;5.78;;;1.77;;
63444;SDS011;49573;47.682;9.170;2023-02-03T02:19:25;4.43;;;1.60;;
63444;SDS011;49573;47.682;9.170;2023-02-03T02:22:36;3.97;;;1.80;;
63444;SDS011;49573;47.682;9.170;2023-02-03T02:25:39;6.57;;;2.10;;
63444;SDS011;49573;47.682;9.170;2023-02-03T02:28:38;6.30;;;1.80;;
63444;SDS011;49573;47.682;9.170;2023-02-03T02:31:40;8.63;;;1.90;;
63444;SDS011;49573;47.682;9.170;2023-02-03T02:34:38;5.93;;;2.00;;
63444;SDS011;49573;47.682;9.170;2023-02-03T02:37:34;4.53;;;1.77;;
63444;SDS011;49573;47.682;9.170;2023-02-03T02:40:28;5.43;;;1.75;;
63444;SDS011;49573;47.682;9.170;2023-02-03T02:43:22;3.70;;;1.60;;
63444;SDS011;49573;47.682;9.170;2023-02-03T02:46:13;3.47;;;1.73;;
63444;SDS011;49573;47.682;9.170;2023-02-03T02:49:05;6.00;;;2.30;;
63444;SDS011;49573;47.682;9.170;2023-02-03T02:51:58;4.20;;;1.60;;
63444;SDS011;49573;47.682;9.170;2023-02-03T02:54:49;4.40;;;2.10;;
63444;SDS011;49573;47.682;9.170;2023-02-03T02:57:38;5.72;;;2.17;;
63444;SDS011;49573;47.682;9.170;2023-02-03T03:00:28;5.93;;;1.92;;
63444;SDS011;49573;47.682;9.170;2023-02-03T03:03:16;3.97;;;2.00;;
63444;SDS011;49573;47.682;9.170;2023-02-03T03:06:06;6.25;;;1.92;;
63444;SDS011;49573;47.682;9.170;2023-02-03T03:08:55;5.43;;;2.03;;
63444;SDS011;49573;47.682;9.170;2023-02-03T03:11:47;6.07;;;2.13;;
63444;SDS011;49573;47.682;9.170;2023-02-03T03:14:35;5.50;;;2.15;;
63444;SDS011;49573;47.682;9.170;2023-02-03T03:17:26;6.85;;;1.98;;
63444;SDS011;49573;47.682;9.170;2023-02-03T03:20:17;5.53;;;1.80;;
63444;SDS011;49573;47.682;9.170;2023-02-03T03:23:09;5.25;;;1.80;;
63444;SDS011;49573;47.682;9.170;2023-02-03T03:26:02;5.18;;;1.70;;
63444;SDS011;49573;47.682;9.170;2023-02-03T03:28:53;3.80;;;1.92;;
63444;SDS011;49573;47.682;9.170;2023-02-03T03:31:45;3.72;;;1.40;;
63444;SDS011;49573;47.682;9.170;2023-02-03T03:34:31;2.47;;;1.40;;
63444;SDS011;49573;47.682;9.170;2023-02-03T03:37:18;4.20;;;1.63;;
63444;SDS011;49573;47.682;9.170;2023-02-03T03:40:10;6.63;;;1.90;;
63444;SDS011;49573;47.682;9.170;2023-02-03T03:43:02;5.00;;;1.27;;
63444;SDS011;49573;47.682;9.170;2023-02-03T03:45:56;4.22;;;1.60;;
63444;SDS011;49573;47.682;9.170;2023-02-03T03:48:46;6.65;;;1.88;;
63444;SDS011;49573;47.682;9.170;2023-02-03T03:51:38;5.18;;;2.00;;
63444;SDS011;49573;47.682;9.170;2023-02-03T03:54:29;5.47;;;1.70;;
63444;SDS011;49573;47.682;9.170;2023-02-03T03:57:19;3.03;;;1.40;;
63444;SDS011;49573;47.682;9.170;2023-02-03T04:00:08;5.28;;;1.65;;
63444;SDS011;49573;47.682;9.170;2023-02-03T04:02:57;9.63;;;2.08;;
63444;SDS011;49573;47.682;9.170;2023-02-03T04:05:46;3.97;;;1.70;;
63444;SDS011;49573;47.682;9.170;2023-02-03T04:08:32;5.65;;;1.67;;
63444;SDS011;49573;47.682;9.170;2023-02-03T04:11:18;2.90;;;1.65;;
63444;SDS011;49573;47.682;9.170;2023-02-03T04:14:24;3.75;;;1.80;;
63444;SDS011;49573;47.682;9.170;2023-02-03T04:17:10;4.57;;;1.85;;
63444;SDS011;49573;47.682;9.170;2023-02-03T04:19:56;2.88;;;1.58;;
63444;SDS011;49573;47.682;9.170;2023-02-03T04:22:42;4.15;;;1.85;;
63444;SDS011;49573;47.682;9.170;2023-02-03T04:25:28;4.78;;;1.92;;
63444;SDS011;49573;47.682;9.170;2023-02-03T04:28:14;5.10;;;2.00;;
63444;SDS011;49573;47.682;9.170;2023-02-03T04:31:02;8.95;;;2.08;;
63444;SDS011;49573;47.682;9.170;2023-02-03T04:33:48;5.38;;;2.35;;
63444;SDS011;49573;47.682;9.170;2023-02-03T04:36:34;4.38;;;1.70;;
63444;SDS011;49573;47.682;9.170;2023-02-03T04:39:20;4.50;;;1.88;;
63444;SDS011;49573;47.682;9.170;2023-02-03T04:42:06;5.38;;;1.73;;
63444;SDS011;49573;47.682;9.170;2023-02-03T04:44:53;5.70;;;2.10;;
63444;SDS011;49573;47.682;9.170;2023-02-03T04:47:40;4.32;;;1.70;;
63444;SDS011;49573;47.682;9.170;2023-02-03T04:50:26;4.25;;;2.20;;
63444;SDS011;49573;47.682;9.170;2023-02-03T04:53:12;4.00;;;1.67;;
63444;SDS011;49573;47.682;9.170;2023-02-03T04:55:58;5.13;;;1.98;;
63444;SDS011;49573;47.682;9.170;2023-02-03T04:58:44;4.13;;;1.80;;
63444;SDS011;49573;47.682;9.170;2023-02-03T05:01:30;2.83;;;1.40;;
63444;SDS011;49573;47.682;9.170;2023-02-03T05:04:18;2.67;;;1.70;;
63444;SDS011;49573;47.682;9.170;2023-02-03T05:07:04;5.45;;;2.25;;
63444;SDS011;49573;47.682;9.170;2023-02-03T05:09:50;2.92;;;1.20;;
63444;SDS011;49573;47.682;9.170;2023-02-03T05:12:36;5.75;;;1.90;;
63444;SDS011;49573;47.682;9.170;2023-02-03T05:15:22;5.30;;;1.63;;
63444;SDS011;49573;47.682;9.170;2023-02-03T05:18:08;7.30;;;2.25;;
63444;SDS011;49573;47.682;9.170;2023-02-03T05:20:56;2.28;;;1.45;;
63444;SDS011;49573;47.682;9.170;2023-02-03T05:23:42;4.93;;;1.55;;
63444;SDS011;49573;47.682;9.170;2023-02-03T05:26:28;3.97;;;1.52;;
63444;SDS011;49573;47.682;9.170;2023-02-03T05:29:14;6.97;;;2.00;;
63444;SDS011;49573;47.682;9.170;2023-02-03T05:32:00;4.90;;;1.58;;
63444;SDS011;49573;47.682;9.170;2023-02-03T05:34:46;3.75;;;1.77;;
63444;SDS011;49573;47.682;9.170;2023-02-03T05:37:33;7.90;;;1.80;;
63444;SDS011;49573;47.682;9.170;2023-02-03T05:40:19;8.48;;;2.95;;
63444;SDS011;49573;47.682;9.170;2023-02-03T05:43:24;2.40;;;1.40;;
63444;SDS011;49573;47.682;9.170;2023-02-03T05:46:11;6.60;;;1.60;;
63444;SDS011;49573;47.682;9.170;2023-02-03T05:48:57;5.30;;;2.10;;
63444;SDS011;49573;47.682;9.170;2023-02-03T05:51:43;5.53;;;2.05;;
63444;SDS011;49573;47.682;9.170;2023-02-03T05:54:31;6.88;;;1.80;;
63444;SDS011;49573;47.682;9.170;2023-02-03T05:57:17;5.30;;;2.00;;
63444;SDS011;49573;47.682;9.170;2023-02-03T06:00:03;7.45;;;1.90;;
63444;SDS011;49573;47.682;9.170;2023-02-03T06:02:52;6.55;;;2.10;;
63444;SDS011;49573;47.682;9.170;2023-02-03T06:05:39;3.92;;;1.83;;
63444;SDS011;49573;47.682;9.170;2023-02-03T06:08:25;6.82;;;2.08;;
63444;SDS011;49573;47.682;9.170;2023-02-03T06:14:00;3.83;;;1.80;;
63444;SDS011;49573;47.682;9.170;2023-02-03T06:16:46;4.85;;;1.80;;
63444;SDS011;49573;47.682;9.170;2023-02-03T06:19:32;4.75;;;1.90;;
63444;SDS011;49573;47.682;9.170;2023-02-03T06:22:18;3.85;;;1.70;;
63444;SDS011;49573;47.682;9.170;2023-02-03T06:25:05;6.85;;;2.13;;
63444;SDS011;49573;47.682;9.170;2023-02-03T06:27:52;9.52;;;2.00;;
63444;SDS011;49573;47.682;9.170;2023-02-03T06:30:38;6.35;;;2.00;;
63444;SDS011;49573;47.682;9.170;2023-02-03T06:33:24;3.00;;;1.65;;
63444;SDS011;49573;47.682;9.170;2023-02-03T06:36:10;4.95;;;1.48;;
63444;SDS011;49573;47.682;9.170;2023-02-03T06:38:56;5.22;;;1.88;;
63444;SDS011;49573;47.682;9.170;2023-02-03T06:41:43;4.38;;;2.10;;
63444;SDS011;49573;47.682;9.170;2023-02-03T06:44:30;3.67;;;1.98;;
63444;SDS011;49573;47.682;9.170;2023-02-03T06:47:16;2.97;;;1.70;;
63444;SDS011;49573;47.682;9.170;2023-02-03T06:50:03;5.22;;;2.17;;
63444;SDS011;49573;47.682;9.170;2023-02-03T06:52:49;6.70;;;1.98;;
63444;SDS011;49573;47.682;9.170;2023-02-03T06:55:35;4.85;;;2.00;;
63444;SDS011;49573;47.682;9.170;2023-02-03T06:58:21;3.33;;;2.05;;
63444;SDS011;49573;47.682;9.170;2023-02-03T07:01:08;4.32;;;2.17;;
63444;SDS011;49573;47.682;9.170;2023-02-03T07:03:54;6.35;;;2.45;;
63444;SDS011;49573;47.682;9.170;2023-02-03T07:06:42;4.13;;;1.88;;
63444;SDS011;49573;47.682;9.170;2023-02-03T07:09:28;5.07;;;2.30;;
63444;SDS011;49573;47.682;9.170;2023-02-03T07:12:14;3.75;;;1.80;;
63444;SDS011;49573;47.682;9.170;2023-02-03T07:15:00;8.25;;;2.20;;
63444;SDS011;49573;47.682;9.170;2023-02-03T07:17:48;4.65;;;1.90;;
63444;SDS011;49573;47.682;9.170;2023-02-03T07:20:38;4.35;;;2.03;;
63444;SDS011;49573;47.682;9.170;2023-02-03T07:23:24;3.63;;;1.60;;
63444;SDS011;49573;47.682;9.170;2023-02-03T07:26:10;4.35;;;1.90;;
63444;SDS011;49573;47.682;9.170;2023-02-03T07:28:56;3.78;;;1.52;;
63444;SDS011;49573;47.682;9.170;2023-02-03T07:31:45;4.55;;;2.05;;
63444;SDS011;49573;47.682;9.170;2023-02-03T07:34:32;4.90;;;2.17;;
63444;SDS011;49573;47.682;9.170;2023-02-03T07:37:18;3.72;;;1.80;;
63444;SDS011;49573;47.682;9.170;2023-02-03T07:40:04;4.50;;;2.30;;
63444;SDS011;49573;47.682;9.170;2023-02-03T07:42:52;4.72;;;1.58;;
63444;SDS011;49573;47.682;9.170;2023-02-03T07:45:38;3.80;;;2.38;;
63444;SDS011;49573;47.682;9.170;2023-02-03T07:48:24;5.10;;;2.00;;
63444;SDS011;49573;47.682;9.170;2023-02-03T07:51:11;3.97;;;2.03;;
63444;SDS011;49573;47.682;9.170;2023-02-03T07:53:57;10.30;;;2.08;;
63444;SDS011;49573;47.682;9.170;2023-02-03T07:56:43;6.95;;;1.90;;
63444;SDS011;49573;47.682;9.170;2023-02-03T07:59:29;4.85;;;2.03;;
63444;SDS011;49573;47.682;9.170;2023-02-03T08:02:15;3.65;;;1.90;;
63444;SDS011;49573;47.682;9.170;2023-02-03T08:05:01;5.68;;;1.77;;
63444;SDS011;49573;47.682;9.170;2023-02-03T08:07:49;4.67;;;1.70;;
63444;SDS011;49573;47.682;9.170;2023-02-03T08:10:35;4.65;;;1.88;;
63444;SDS011;49573;47.682;9.170;2023-02-03T08:13:21;3.00;;;1.65;;
63444;SDS011;49573;47.682;9.170;2023-02-03T08:16:07;3.63;;;2.00;;
63444;SDS011;49573;47.682;9.170;2023-02-03T08:18:53;5.05;;;2.08;;
63444;SDS011;49573;47.682;9.170;2023-02-03T08:21:39;3.88;;;1.42;;
63444;SDS011;49573;47.682;9.170;2023-02-03T08:24:26;3.83;;;1.55;;
63444;SDS011;49573;47.682;9.170;2023-02-03T08:27:13;3.63;;;1.77;;
63444;SDS011;49573;47.682;9.170;2023-02-03T08:30:00;4.18;;;1.70;;
63444;SDS011;49573;47.682;9.170;2023-02-03T08:32:46;9.20;;;1.95;;
63444;SDS011;49573;47.682;9.170;2023-02-03T08:35:33;4.38;;;1.73;;
63444;SDS011;49573;47.682;9.170;2023-02-03T08:38:19;3.25;;;1.70;;
63444;SDS011;49573;47.682;9.170;2023-02-03T08:43:57;3.50;;;1.60;;
63444;SDS011;49573;47.682;9.170;2023-02-03T08:46:43;4.13;;;1.83;;
63444;SDS011;49573;47.682;9.170;2023-02-03T08:49:29;4.47;;;1.67;;
63444;SDS011;49573;47.682;9.170;2023-02-03T08:52:16;4.28;;;2.10;;
63444;SDS011;49573;47.682;9.170;2023-02-03T08:55:02;2.75;;;1.65;;
63444;SDS011;49573;47.682;9.170;2023-02-03T08:57:50;5.25;;;2.35;;
63444;SDS011;49573;47.682;9.170;2023-02-03T09:00:36;7.90;;;2.00;;
63444;SDS011;49573;47.682;9.170;2023-02-03T09:03:22;5.72;;;1.88;;
63444;SDS011;49573;47.682;9.170;2023-02-03T09:06:09;3.85;;;1.70;;
63444;SDS011;49573;47.682;9.170;2023-02-03T09:09:01;5.05;;;2.42;;
63444;SDS011;49573;47.682;9.170;2023-02-03T09:11:47;9.68;;;2.13;;
63444;SDS011;49573;47.682;9.170;2023-02-03T09:14:35;5.03;;;2.30;;
63444;SDS011;49573;47.682;9.170;2023-02-03T09:17:21;4.28;;;2.00;;
63444;SDS011;49573;47.682;9.170;2023-02-03T09:20:07;6.55;;;2.08;;
63444;SDS011;49573;47.682;9.170;2023-02-03T09:22:57;6.63;;;2.10;;
63444;SDS011;49573;47.682;9.170;2023-02-03T09:28:30;6.00;;;2.00;;
63444;SDS011;49573;47.682;9.170;2023-02-03T09:31:17;8.23;;;1.90;;
63444;SDS011;49573;47.682;9.170;2023-02-03T09:34:04;4.97;;;1.60;;
63444;SDS011;49573;47.682;9.170;2023-02-03T09:36:50;6.40;;;1.85;;
63444;SDS011;49573;47.682;9.170;2023-02-03T09:39:36;3.55;;;1.90;;
63444;SDS011;49573;47.682;9.170;2023-02-03T09:42:32;2.30;;;1.63;;
63444;SDS011;49573;47.682;9.170;2023-02-03T09:45:35;16.60;;;2.58;;
63444;SDS011;49573;47.682;9.170;2023-02-03T09:48:23;4.78;;;1.83;;
63444;SDS011;49573;47.682;9.170;2023-02-03T09:51:17;3.63;;;1.90;;
63444;SDS011;49573;47.682;9.170;2023-02-03T09:54:10;3.22;;;1.50;;
63444;SDS011;49573;47.682;9.170;2023-02-03T09:57:01;4.32;;;2.05;;
63444;SDS011;49573;47.682;9.170;2023-02-03T09:59:51;2.03;;;1.60;;
63444;SDS011;49573;47.682;9.170;2023-02-03T10:02:44;2.90;;;1.60;;
63444;SDS011;49573;47.682;9.170;2023-02-03T10:05:45;2.80;;;1.48;;
63444;SDS011;49573;47.682;9.170;2023-02-03T10:08:52;2.17;;;1.55;;
63444;SDS011;49573;47.682;9.170;2023-02-03T10:11:53;2.95;;;1.60;;
63444;SDS011;49573;47.682;9.170;2023-02-03T10:14:55;2.83;;;1.30;;
63444;SDS011;49573;47.682;9.170;2023-02-03T10:17:51;3.78;;;1.55;;
63444;SDS011;49573;47.682;9.170;2023-02-03T10:20:42;2.80;;;1.48;;
63444;SDS011;49573;47.682;9.170;2023-02-03T10:23:33;3.45;;;1.25;;
63444;SDS011;49573;47.682;9.170;2023-02-03T10:26:23;2.50;;;1.48;;
63444;SDS011;49573;47.682;9.170;2023-02-03T10:29:16;4.22;;;1.63;;
63444;SDS011;49573;47.682;9.170;2023-02-03T10:32:07;5.22;;;1.48;;
63444;SDS011;49573;47.682;9.170;2023-02-03T10:34:54;5.88;;;1.80;;
63444;SDS011;49573;47.682;9.170;2023-02-03T10:37:43;3.05;;;1.80;;
63444;SDS011;49573;47.682;9.170;2023-02-03T10:40:31;3.88;;;1.60;;
63444;SDS011;49573;47.682;9.170;2023-02-03T10:43:17;4.43;;;1.88;;
63444;SDS011;49573;47.682;9.170;2023-02-03T10:46:25;4.93;;;1.50;;
63444;SDS011;49573;47.682;9.170;2023-02-03T10:49:13;2.78;;;1.60;;
63444;SDS011;49573;47.682;9.170;2023-02-03T10:52:00;5.47;;;1.92;;
63444;SDS011;49573;47.682;9.170;2023-02-03T10:54:50;3.42;;;1.48;;
63444;SDS011;49573;47.682;9.170;2023-02-03T10:57:36;5.75;;;1.80;;
63444;SDS011;49573;47.682;9.170;2023-02-03T11:00:26;2.53;;;1.38;;
63444;SDS011;49573;47.682;9.170;2023-02-03T11:03:19;3.92;;;1.50;;
63444;SDS011;49573;47.682;9.170;2023-02-03T11:06:10;5.45;;;2.05;;
63444;SDS011;49573;47.682;9.170;2023-02-03T11:08:57;4.72;;;1.70;;
63444;SDS011;49573;47.682;9.170;2023-02-03T11:11:45;4.75;;;1.50;;
63444;SDS011;49573;47.682;9.170;2023-02-03T11:14:35;3.40;;;1.52;;
63444;SDS011;49573;47.682;9.170;2023-02-03T11:17:22;5.88;;;2.15;;
63444;SDS011;49573;47.682;9.170;2023-02-03T11:20:12;3.15;;;1.58;;
63444;SDS011;49573;47.682;9.170;2023-02-03T11:23:00;2.67;;;1.50;;
63444;SDS011;49573;47.682;9.170;2023-02-03T11:25:49;3.33;;;1.73;;
63444;SDS011;49573;47.682;9.170;2023-02-03T11:28:36;2.33;;;1.45;;
63444;SDS011;49573;47.682;9.170;2023-02-03T11:31:27;5.57;;;1.85;;
63444;SDS011;49573;47.682;9.170;2023-02-03T11:34:16;2.15;;;1.40;;
63444;SDS011;49573;47.682;9.170;2023-02-03T11:37:24;1.80;;;1.33;;
63444;SDS011;49573;47.682;9.170;2023-02-03T11:40:25;4.68;;;1.60;;
63444;SDS011;49573;47.682;9.170;2023-02-03T11:43:13;5.20;;;1.55;;
63444;SDS011;49573;47.682;9.170;2023-02-03T11:46:03;3.42;;;1.60;;
63444;SDS011;49573;47.682;9.170;2023-02-03T11:48:56;3.22;;;1.77;;
63444;SDS011;49573;47.682;9.170;2023-02-03T11:51:51;3.17;;;1.65;;
63444;SDS011;49573;47.682;9.170;2023-02-03T11:54:48;1.90;;;1.45;;
63444;SDS011;49573;47.682;9.170;2023-02-03T11:57:42;3.42;;;1.52;;
63444;SDS011;49573;47.682;9.170;2023-02-03T12:00:37;4.60;;;1.55;;
63444;SDS011;49573;47.682;9.170;2023-02-03T12:03:39;3.60;;;1.38;;
63444;SDS011;49573;47.682;9.170;2023-02-03T12:06:54;2.70;;;1.45;;
63444;SDS011;49573;47.682;9.170;2023-02-03T12:09:51;3.22;;;1.13;;
63444;SDS011;49573;47.682;9.170;2023-02-03T12:12:45;3.58;;;1.50;;
63444;SDS011;49573;47.682;9.170;2023-02-03T12:15:41;4.18;;;1.77;;
63444;SDS011;49573;47.682;9.170;2023-02-03T12:18:40;3.88;;;1.85;;
63444;SDS011;49573;47.682;9.170;2023-02-03T12:21:42;4.03;;;1.40;;
63444;SDS011;49573;47.682;9.170;2023-02-03T12:24:32;2.55;;;1.42;;
63444;SDS011;49573;47.682;9.170;2023-02-03T12:27:32;5.60;;;1.42;;
63444;SDS011;49573;47.682;9.170;2023-02-03T12:30:26;2.55;;;1.50;;
63444;SDS011;49573;47.682;9.170;2023-02-03T12:33:15;2.60;;;1.60;;
63444;SDS011;49573;47.682;9.170;2023-02-03T12:36:08;3.92;;;1.65;;
63444;SDS011;49573;47.682;9.170;2023-02-03T12:39:00;4.13;;;2.10;;
63444;SDS011;49573;47.682;9.170;2023-02-03T12:41:53;4.53;;;1.63;;
63444;SDS011;49573;47.682;9.170;2023-02-03T12:44:44;2.67;;;1.50;;
63444;SDS011;49573;47.682;9.170;2023-02-03T12:47:35;2.17;;;1.15;;
63444;SDS011;49573;47.682;9.170;2023-02-03T12:50:28;2.80;;;1.45;;
63444;SDS011;49573;47.682;9.170;2023-02-03T12:53:20;3.30;;;1.83;;
63444;SDS011;49573;47.682;9.170;2023-02-03T12:56:10;5.15;;;1.42;;
63444;SDS011;49573;47.682;9.170;2023-02-03T12:58:59;3.63;;;1.48;;
63444;SDS011;49573;47.682;9.170;2023-02-03T13:01:51;3.10;;;1.30;;
63444;SDS011;49573;47.682;9.170;2023-02-03T13:04:42;3.83;;;1.50;;
63444;SDS011;49573;47.682;9.170;2023-02-03T13:07:35;3.33;;;1.63;;
63444;SDS011;49573;47.682;9.170;2023-02-03T13:10:28;3.35;;;1.42;;
63444;SDS011;49573;47.682;9.170;2023-02-03T13:13:22;5.28;;;1.77;;
63444;SDS011;49573;47.682;9.170;2023-02-03T13:16:15;4.28;;;1.67;;
63444;SDS011;49573;47.682;9.170;2023-02-03T13:19:05;2.40;;;1.20;;
63444;SDS011;49573;47.682;9.170;2023-02-03T13:21:58;2.28;;;1.42;;
63444;SDS011;49573;47.682;9.170;2023-02-03T13:24:44;2.97;;;1.70;;
63444;SDS011;49573;47.682;9.170;2023-02-03T13:27:40;2.38;;;1.15;;
63444;SDS011;49573;47.682;9.170;2023-02-03T13:34:07;4.38;;;1.40;;
63444;SDS011;49573;47.682;9.170;2023-02-03T13:40:39;4.95;;;1.42;;
63444;SDS011;49573;47.682;9.170;2023-02-03T13:43:36;2.92;;;1.50;;
63444;SDS011;49573;47.682;9.170;2023-02-03T13:46:25;4.03;;;1.90;;
63444;SDS011;49573;47.682;9.170;2023-02-03T13:49:15;3.42;;;1.48;;
63444;SDS011;49573;47.682;9.170;2023-02-03T13:52:21;5.10;;;1.77;;
63444;SDS011;49573;47.682;9.170;2023-02-03T13:55:19;2.63;;;1.30;;
63444;SDS011;49573;47.682;9.170;2023-02-03T13:58:22;2.30;;;1.40;;
63444;SDS011;49573;47.682;9.170;2023-02-03T14:07:35;3.67;;;1.60;;
63444;SDS011;49573;47.682;9.170;2023-02-03T14:10:23;4.85;;;1.17;;
63444;SDS011;49573;47.682;9.170;2023-02-03T14:13:17;2.58;;;1.40;;
63444;SDS011;49573;47.682;9.170;2023-02-03T14:16:21;4.15;;;1.63;;
63444;SDS011;49573;47.682;9.170;2023-02-03T14:19:09;7.10;;;2.40;;
63444;SDS011;49573;47.682;9.170;2023-02-03T14:21:56;3.85;;;1.70;;
63444;SDS011;49573;47.682;9.170;2023-02-03T14:24:46;2.10;;;1.20;;
63444;SDS011;49573;47.682;9.170;2023-02-03T14:27:33;1.73;;;1.20;;
63444;SDS011;49573;47.682;9.170;2023-02-03T14:30:19;2.35;;;1.30;;
63444;SDS011;49573;47.682;9.170;2023-02-03T14:33:05;2.40;;;1.38;;
63444;SDS011;49573;47.682;9.170;2023-02-03T14:35:53;3.85;;;1.30;;
63444;SDS011;49573;47.682;9.170;2023-02-03T14:38:39;2.53;;;1.10;;
63444;SDS011;49573;47.682;9.170;2023-02-03T14:41:27;3.05;;;1.50;;
63444;SDS011;49573;47.682;9.170;2023-02-03T14:44:24;2.13;;;1.20;;
63444;SDS011;49573;47.682;9.170;2023-02-03T14:47:22;1.45;;;1.05;;
63444;SDS011;49573;47.682;9.170;2023-02-03T14:50:23;2.88;;;1.40;;
63444;SDS011;49573;47.682;9.170;2023-02-03T14:53:25;2.88;;;1.35;;
63444;SDS011;49573;47.682;9.170;2023-02-03T14:56:29;3.78;;;1.33;;
63444;SDS011;49573;47.682;9.170;2023-02-03T14:59:45;2.70;;;1.10;;
63444;SDS011;49573;47.682;9.170;2023-02-03T15:02:32;3.00;;;1.15;;
63444;SDS011;49573;47.682;9.170;2023-02-03T15:05:35;1.73;;;0.88;;
63444;SDS011;49573;47.682;9.170;2023-02-03T15:08:35;1.50;;;0.93;;
63444;SDS011;49573;47.682;9.170;2023-02-03T15:11:29;3.13;;;0.93;;
63444;SDS011;49573;47.682;9.170;2023-02-03T15:14:18;1.00;;;0.85;;
63444;SDS011;49573;47.682;9.170;2023-02-03T15:17:10;2.20;;;1.10;;
63444;SDS011;49573;47.682;9.170;2023-02-03T15:19:58;1.55;;;1.35;;
63444;SDS011;49573;47.682;9.170;2023-02-03T15:22:44;2.08;;;0.82;;
63444;SDS011;49573;47.682;9.170;2023-02-03T15:25:31;1.88;;;0.85;;
63444;SDS011;49573;47.682;9.170;2023-02-03T15:28:18;1.55;;;0.80;;
63444;SDS011;49573;47.682;9.170;2023-02-03T15:31:06;2.28;;;0.60;;
63444;SDS011;49573;47.682;9.170;2023-02-03T15:34:03;1.00;;;0.70;;
63444;SDS011;49573;47.682;9.170;2023-02-03T15:36:54;3.55;;;1.08;;
63444;SDS011;49573;47.682;9.170;2023-02-03T15:39:46;1.65;;;0.93;;
63444;SDS011;49573;47.682;9.170;2023-02-03T15:42:44;1.42;;;0.77;;
63444;SDS011;49573;47.682;9.170;2023-02-03T15:45:43;1.35;;;1.10;;
63444;SDS011;49573;47.682;9.170;2023-02-03T15:48:39;2.17;;;0.73;;
63444;SDS011;49573;47.682;9.170;2023-02-03T15:51:29;2.22;;;1.13;;
63444;SDS011;49573;47.682;9.170;2023-02-03T15:54:19;0.82;;;0.70;;
63444;SDS011;49573;47.682;9.170;2023-02-03T15:57:09;1.98;;;0.93;;
63444;SDS011;49573;47.682;9.170;2023-02-03T16:00:18;2.50;;;1.17;;
63444;SDS011;49573;47.682;9.170;2023-02-03T16:03:16;1.05;;;0.90;;
63444;SDS011;49573;47.682;9.170;2023-02-03T16:06:07;1.90;;;1.10;;
63444;SDS011;49573;47.682;9.170;2023-02-03T16:08:54;3.03;;;1.02;;
63444;SDS011;49573;47.682;9.170;2023-02-03T16:11:40;2.38;;;1.27;;
63444;SDS011;49573;47.682;9.170;2023-02-03T16:14:30;1.42;;;0.80;;
63444;SDS011;49573;47.682;9.170;2023-02-03T16:17:23;2.60;;;0.55;;
63444;SDS011;49573;47.682;9.170;2023-02-03T16:23:18;1.77;;;0.85;;
63444;SDS011;49573;47.682;9.170;2023-02-03T16:26:14;1.08;;;0.82;;
63444;SDS011;49573;47.682;9.170;2023-02-03T16:29:10;1.17;;;0.88;;
63444;SDS011;49573;47.682;9.170;2023-02-03T16:32:16;3.10;;;0.80;;
63444;SDS011;49573;47.682;9.170;2023-02-03T16:35:23;1.77;;;0.95;;
63444;SDS011;49573;47.682;9.170;2023-02-03T16:38:28;0.77;;;0.52;;
63444;SDS011;49573;47.682;9.170;2023-02-03T16:41:32;1.25;;;0.60;;
63444;SDS011;49573;47.682;9.170;2023-02-03T16:44:38;2.13;;;0.93;;
63444;SDS011;49573;47.682;9.170;2023-02-03T16:47:42;1.75;;;1.00;;
63444;SDS011;49573;47.682;9.170;2023-02-03T16:50:49;1.67;;;0.98;;
63444;SDS011;49573;47.682;9.170;2023-02-03T16:53:41;2.50;;;1.05;;
63444;SDS011;49573;47.682;9.170;2023-02-03T16:56:29;1.15;;;1.05;;
63444;SDS011;49573;47.682;9.170;2023-02-03T16:59:15;3.20;;;1.20;;
63444;SDS011;49573;47.682;9.170;2023-02-03T17:02:01;1.07;;;0.83;;
63444;SDS011;49573;47.682;9.170;2023-02-03T17:04:47;2.03;;;1.27;;
63444;SDS011;49573;47.682;9.170;2023-02-03T17:07:35;1.58;;;1.10;;
63444;SDS011;49573;47.682;9.170;2023-02-03T17:10:21;1.70;;;1.05;;
63444;SDS011;49573;47.682;9.170;2023-02-03T17:13:07;1.27;;;0.77;;
63444;SDS011;49573;47.682;9.170;2023-02-03T17:15:53;2.72;;;1.30;;
63444;SDS011;49573;47.682;9.170;2023-02-03T17:18:39;3.50;;;1.80;;
63444;SDS011;49573;47.682;9.170;2023-02-03T17:21:26;3.13;;;1.60;;
63444;SDS011;49573;47.682;9.170;2023-02-03T17:24:15;4.35;;;1.90;;
63444;SDS011;49573;47.682;9.170;2023-02-03T17:27:01;2.75;;;1.80;;
63444;SDS011;49573;47.682;9.170;2023-02-03T17:29:47;3.93;;;1.90;;
63444;SDS011;49573;47.682;9.170;2023-02-03T17:32:33;1.92;;;1.50;;